Ayr, Canada
Current Conditions -  °F | °C
As of 12:00 AM on Sunday 21 Dec 2014 (Local Time) from CYKF Reporting Station
Overcast Overcast  
Wind Chill: 27°   Ceiling: 5500
Heat Index: 27°   Visibility: 9mi
Dew Point: 23°   Wind: 3mph
Humidity: 86%   Direction: 270°W
Pressure: 30.24"   Gusts: NA
Location:  43.28°N, 80.45°W
Report Text: CYKF 210500Z AUTO 27003KT 9SM OVC055 M03/M05 A3024 RMK SLP256
Loading
Personal Weather Stations






























Interactive Weather Map New forecast layout! Learn more

10-Day Weather Forecast

Advertisements
Track Severe Weather on mobile